sensor_id;sensor_type;location;lat;lon;timestamp;temperature;humidity
6988;DHT22;3534;49.960;8.018;2023-04-29T00:02:13;14.40;99.90
6988;DHT22;3534;49.960;8.018;2023-04-29T00:04:39;14.40;99.90
6988;DHT22;3534;49.960;8.018;2023-04-29T00:07:06;14.40;99.90
6988;DHT22;3534;49.960;8.018;2023-04-29T00:09:33;14.40;99.90
6988;DHT22;3534;49.960;8.018;2023-04-29T00:12:02;14.50;99.90
6988;DHT22;3534;49.960;8.018;2023-04-29T00:14:28;14.40;99.90
6988;DHT22;3534;49.960;8.018;2023-04-29T00:16:55;14.30;99.90
6988;DHT22;3534;49.960;8.018;2023-04-29T00:19:22;14.20;99.90
6988;DHT22;3534;49.960;8.018;2023-04-29T00:21:49;14.20;99.90
6988;DHT22;3534;49.960;8.018;2023-04-29T00:24:16;14.20;99.90
6988;DHT22;3534;49.960;8.018;2023-04-29T00:26:43;14.30;99.90
6988;DHT22;3534;49.960;8.018;2023-04-29T00:29:11;14.30;99.90
6988;DHT22;3534;49.960;8.018;2023-04-29T00:31:37;14.30;99.90
6988;DHT22;3534;49.960;8.018;2023-04-29T00:34:04;14.30;99.90
6988;DHT22;3534;49.960;8.018;2023-04-29T00:36:31;14.30;99.90
6988;DHT22;3534;49.960;8.018;2023-04-29T00:38:58;14.30;99.90
6988;DHT22;3534;49.960;8.018;2023-04-29T00:41:25;14.30;99.90
6988;DHT22;3534;49.960;8.018;2023-04-29T00:43:51;14.30;99.90
6988;DHT22;3534;49.960;8.018;2023-04-29T00:46:19;14.30;99.90
6988;DHT22;3534;49.960;8.018;2023-04-29T00:48:46;14.30;99.90
6988;DHT22;3534;49.960;8.018;2023-04-29T00:51:13;14.20;99.90
6988;DHT22;3534;49.960;8.018;2023-04-29T00:53:40;14.20;99.90
6988;DHT22;3534;49.960;8.018;2023-04-29T00:56:07;14.20;99.90
6988;DHT22;3534;49.960;8.018;2023-04-29T00:58:35;14.20;99.90
6988;DHT22;3534;49.960;8.018;2023-04-29T01:01:03;14.10;99.90
6988;DHT22;3534;49.960;8.018;2023-04-29T01:03:32;14.10;99.90
6988;DHT22;3534;49.960;8.018;2023-04-29T01:06:07;14.10;99.90
6988;DHT22;3534;49.960;8.018;2023-04-29T01:08:43;14.10;99.90
6988;DHT22;3534;49.960;8.018;2023-04-29T01:11:15;14.00;99.90
6988;DHT22;3534;49.960;8.018;2023-04-29T01:13:49;14.00;99.90
6988;DHT22;3534;49.960;8.018;2023-04-29T01:16:21;14.00;99.90
6988;DHT22;3534;49.960;8.018;2023-04-29T01:18:53;13.90;99.90
6988;DHT22;3534;49.960;8.018;2023-04-29T01:21:21;13.90;99.90
6988;DHT22;3534;49.960;8.018;2023-04-29T01:23:49;13.80;99.90
6988;DHT22;3534;49.960;8.018;2023-04-29T01:26:20;13.80;99.90
6988;DHT22;3534;49.960;8.018;2023-04-29T01:28:52;13.80;99.90
6988;DHT22;3534;49.960;8.018;2023-04-29T01:31:26;13.80;99.90
6988;DHT22;3534;49.960;8.018;2023-04-29T01:34:02;13.80;99.90
6988;DHT22;3534;49.960;8.018;2023-04-29T01:36:39;13.70;99.90
6988;DHT22;3534;49.960;8.018;2023-04-29T01:39:13;13.70;99.90
6988;DHT22;3534;49.960;8.018;2023-04-29T01:41:42;13.60;99.90
6988;DHT22;3534;49.960;8.018;2023-04-29T01:44:13;13.60;99.90
6988;DHT22;3534;49.960;8.018;2023-04-29T01:46:42;13.50;99.90
6988;DHT22;3534;49.960;8.018;2023-04-29T01:49:09;13.50;99.90
6988;DHT22;3534;49.960;8.018;2023-04-29T01:51:35;13.50;99.90
6988;DHT22;3534;49.960;8.018;2023-04-29T01:54:02;13.50;99.90
6988;DHT22;3534;49.960;8.018;2023-04-29T01:56:31;13.50;99.90
6988;DHT22;3534;49.960;8.018;2023-04-29T01:58:57;13.50;99.90
6988;DHT22;3534;49.960;8.018;2023-04-29T02:01:24;13.50;99.90
6988;DHT22;3534;49.960;8.018;2023-04-29T02:03:51;13.50;99.90
6988;DHT22;3534;49.960;8.018;2023-04-29T02:06:17;13.50;99.90
6988;DHT22;3534;49.960;8.018;2023-04-29T02:08:44;13.50;99.90
6988;DHT22;3534;49.960;8.018;2023-04-29T02:11:11;13.50;99.90
6988;DHT22;3534;49.960;8.018;2023-04-29T02:13:38;13.50;99.90
6988;DHT22;3534;49.960;8.018;2023-04-29T02:16:09;13.50;99.90
6988;DHT22;3534;49.960;8.018;2023-04-29T02:18:36;13.50;99.90
6988;DHT22;3534;49.960;8.018;2023-04-29T02:21:03;13.50;99.90
6988;DHT22;3534;49.960;8.018;2023-04-29T02:23:30;13.60;99.90
6988;DHT22;3534;49.960;8.018;2023-04-29T02:25:56;13.60;99.90
6988;DHT22;3534;49.960;8.018;2023-04-29T02:28:23;13.60;99.90
6988;DHT22;3534;49.960;8.018;2023-04-29T02:30:51;13.60;99.90
6988;DHT22;3534;49.960;8.018;2023-04-29T02:33:17;13.60;99.90
6988;DHT22;3534;49.960;8.018;2023-04-29T02:35:44;13.60;99.90
6988;DHT22;3534;49.960;8.018;2023-04-29T02:38:11;13.60;99.90
6988;DHT22;3534;49.960;8.018;2023-04-29T02:40:40;13.70;99.90
6988;DHT22;3534;49.960;8.018;2023-04-29T02:43:07;13.70;99.90
6988;DHT22;3534;49.960;8.018;2023-04-29T02:45:34;13.70;99.90
6988;DHT22;3534;49.960;8.018;2023-04-29T02:48:02;13.70;99.90
6988;DHT22;3534;49.960;8.018;2023-04-29T02:50:29;13.70;99.90
6988;DHT22;3534;49.960;8.018;2023-04-29T02:52:56;13.70;99.90
6988;DHT22;3534;49.960;8.018;2023-04-29T02:55:23;13.70;99.90
6988;DHT22;3534;49.960;8.018;2023-04-29T02:57:49;13.70;99.90
6988;DHT22;3534;49.960;8.018;2023-04-29T03:00:17;13.70;99.90
6988;DHT22;3534;49.960;8.018;2023-04-29T03:02:44;13.70;99.90
6988;DHT22;3534;49.960;8.018;2023-04-29T03:05:12;13.70;99.90
6988;DHT22;3534;49.960;8.018;2023-04-29T03:07:39;13.70;99.90
6988;DHT22;3534;49.960;8.018;2023-04-29T03:10:07;13.70;99.90
6988;DHT22;3534;49.960;8.018;2023-04-29T03:12:34;13.60;99.90
6988;DHT22;3534;49.960;8.018;2023-04-29T03:15:01;13.70;99.90
6988;DHT22;3534;49.960;8.018;2023-04-29T03:17:28;13.70;99.90
6988;DHT22;3534;49.960;8.018;2023-04-29T03:19:54;13.70;99.90
6988;DHT22;3534;49.960;8.018;2023-04-29T03:22:22;13.70;99.90
6988;DHT22;3534;49.960;8.018;2023-04-29T03:24:49;13.70;99.90
6988;DHT22;3534;49.960;8.018;2023-04-29T03:27:16;13.70;99.90
6988;DHT22;3534;49.960;8.018;2023-04-29T03:29:44;13.70;99.90
6988;DHT22;3534;49.960;8.018;2023-04-29T03:32:10;13.80;99.90
6988;DHT22;3534;49.960;8.018;2023-04-29T03:34:37;13.80;99.90
6988;DHT22;3534;49.960;8.018;2023-04-29T03:37:04;13.80;99.90
6988;DHT22;3534;49.960;8.018;2023-04-29T03:39:32;13.80;99.90
6988;DHT22;3534;49.960;8.018;2023-04-29T03:41:58;13.80;99.90
6988;DHT22;3534;49.960;8.018;2023-04-29T03:44:26;13.80;99.90
6988;DHT22;3534;49.960;8.018;2023-04-29T03:46:53;13.80;99.90
6988;DHT22;3534;49.960;8.018;2023-04-29T03:49:20;13.80;99.90
6988;DHT22;3534;49.960;8.018;2023-04-29T03:51:48;13.80;99.90
6988;DHT22;3534;49.960;8.018;2023-04-29T03:54:14;13.80;99.90
6988;DHT22;3534;49.960;8.018;2023-04-29T03:56:42;13.80;99.90
6988;DHT22;3534;49.960;8.018;2023-04-29T03:59:09;13.80;99.90
6988;DHT22;3534;49.960;8.018;2023-04-29T04:01:36;13.90;99.90
6988;DHT22;3534;49.960;8.018;2023-04-29T04:04:02;13.80;99.90
6988;DHT22;3534;49.960;8.018;2023-04-29T04:06:29;13.90;99.90
6988;DHT22;3534;49.960;8.018;2023-04-29T04:08:56;13.90;99.90
6988;DHT22;3534;49.960;8.018;2023-04-29T04:11:23;13.90;99.90
6988;DHT22;3534;49.960;8.018;2023-04-29T04:13:51;13.90;99.90
6988;DHT22;3534;49.960;8.018;2023-04-29T04:16:17;13.90;99.90
6988;DHT22;3534;49.960;8.018;2023-04-29T04:18:44;13.90;99.90
6988;DHT22;3534;49.960;8.018;2023-04-29T04:21:11;13.90;99.90
6988;DHT22;3534;49.960;8.018;2023-04-29T04:23:38;13.90;99.90
6988;DHT22;3534;49.960;8.018;2023-04-29T04:26:05;13.90;99.90
6988;DHT22;3534;49.960;8.018;2023-04-29T04:28:32;13.90;99.90
6988;DHT22;3534;49.960;8.018;2023-04-29T04:31:00;13.90;99.90
6988;DHT22;3534;49.960;8.018;2023-04-29T04:33:26;13.90;99.90
6988;DHT22;3534;49.960;8.018;2023-04-29T04:35:53;13.90;99.90
6988;DHT22;3534;49.960;8.018;2023-04-29T04:38:20;13.80;99.90
6988;DHT22;3534;49.960;8.018;2023-04-29T04:40:49;13.80;99.90
6988;DHT22;3534;49.960;8.018;2023-04-29T04:43:16;13.70;99.90
6988;DHT22;3534;49.960;8.018;2023-04-29T04:45:43;13.70;99.90
6988;DHT22;3534;49.960;8.018;2023-04-29T04:48:11;13.70;99.90
6988;DHT22;3534;49.960;8.018;2023-04-29T04:50:38;13.70;99.90
6988;DHT22;3534;49.960;8.018;2023-04-29T04:53:04;13.80;99.90
6988;DHT22;3534;49.960;8.018;2023-04-29T04:55:31;13.80;99.90
6988;DHT22;3534;49.960;8.018;2023-04-29T04:57:58;13.80;99.90
6988;DHT22;3534;49.960;8.018;2023-04-29T05:00:25;13.90;99.90
6988;DHT22;3534;49.960;8.018;2023-04-29T05:02:52;13.90;99.90
6988;DHT22;3534;49.960;8.018;2023-04-29T05:05:19;13.90;99.90
6988;DHT22;3534;49.960;8.018;2023-04-29T05:07:46;14.00;99.90
6988;DHT22;3534;49.960;8.018;2023-04-29T05:10:13;13.90;99.90
6988;DHT22;3534;49.960;8.018;2023-04-29T05:12:39;13.90;99.90
6988;DHT22;3534;49.960;8.018;2023-04-29T05:15:07;13.90;99.90
6988;DHT22;3534;49.960;8.018;2023-04-29T05:17:34;13.90;99.90
6988;DHT22;3534;49.960;8.018;2023-04-29T05:20:01;13.70;99.90
6988;DHT22;3534;49.960;8.018;2023-04-29T05:22:29;13.60;99.90
6988;DHT22;3534;49.960;8.018;2023-04-29T05:24:56;13.60;99.90
6988;DHT22;3534;49.960;8.018;2023-04-29T05:27:27;13.50;99.90
6988;DHT22;3534;49.960;8.018;2023-04-29T05:29:53;13.40;99.90
6988;DHT22;3534;49.960;8.018;2023-04-29T05:32:21;13.40;99.90
6988;DHT22;3534;49.960;8.018;2023-04-29T05:34:47;13.30;99.90
6988;DHT22;3534;49.960;8.018;2023-04-29T05:37:14;13.30;99.90
6988;DHT22;3534;49.960;8.018;2023-04-29T05:39:42;13.30;99.90
6988;DHT22;3534;49.960;8.018;2023-04-29T05:42:09;13.40;99.90
6988;DHT22;3534;49.960;8.018;2023-04-29T05:44:35;13.40;99.90
6988;DHT22;3534;49.960;8.018;2023-04-29T05:47:02;13.50;99.90
6988;DHT22;3534;49.960;8.018;2023-04-29T05:49:29;13.50;99.90
6988;DHT22;3534;49.960;8.018;2023-04-29T05:51:55;13.50;99.90
6988;DHT22;3534;49.960;8.018;2023-04-29T05:54:22;13.50;99.90
6988;DHT22;3534;49.960;8.018;2023-04-29T05:56:50;13.40;99.90
6988;DHT22;3534;49.960;8.018;2023-04-29T05:59:16;13.40;99.90
6988;DHT22;3534;49.960;8.018;2023-04-29T06:01:43;13.50;99.90
6988;DHT22;3534;49.960;8.018;2023-04-29T06:04:10;13.40;99.90
6988;DHT22;3534;49.960;8.018;2023-04-29T06:06:37;13.40;99.90
6988;DHT22;3534;49.960;8.018;2023-04-29T06:09:03;13.30;99.90
6988;DHT22;3534;49.960;8.018;2023-04-29T06:11:30;13.30;99.90
6988;DHT22;3534;49.960;8.018;2023-04-29T06:13:58;13.20;99.90
6988;DHT22;3534;49.960;8.018;2023-04-29T06:16:25;13.30;99.90
6988;DHT22;3534;49.960;8.018;2023-04-29T06:18:52;13.30;99.90
6988;DHT22;3534;49.960;8.018;2023-04-29T06:21:18;13.30;99.90
6988;DHT22;3534;49.960;8.018;2023-04-29T06:23:45;13.40;99.90
6988;DHT22;3534;49.960;8.018;2023-04-29T06:26:11;13.30;99.90
6988;DHT22;3534;49.960;8.018;2023-04-29T06:28:38;13.40;99.90
6988;DHT22;3534;49.960;8.018;2023-04-29T06:31:06;13.40;99.90
6988;DHT22;3534;49.960;8.018;2023-04-29T06:33:33;13.50;99.90
6988;DHT22;3534;49.960;8.018;2023-04-29T06:36:00;13.50;99.90
6988;DHT22;3534;49.960;8.018;2023-04-29T06:38:27;13.50;99.90
6988;DHT22;3534;49.960;8.018;2023-04-29T06:40:53;13.60;99.90
6988;DHT22;3534;49.960;8.018;2023-04-29T06:43:22;13.70;99.90
6988;DHT22;3534;49.960;8.018;2023-04-29T06:45:48;13.70;99.90
6988;DHT22;3534;49.960;8.018;2023-04-29T06:48:16;13.70;99.90
6988;DHT22;3534;49.960;8.018;2023-04-29T06:50:48;13.70;99.90
6988;DHT22;3534;49.960;8.018;2023-04-29T06:53:15;13.70;99.90
6988;DHT22;3534;49.960;8.018;2023-04-29T06:55:42;13.80;99.90
6988;DHT22;3534;49.960;8.018;2023-04-29T06:58:10;13.90;99.90
6988;DHT22;3534;49.960;8.018;2023-04-29T07:00:37;14.00;99.90
6988;DHT22;3534;49.960;8.018;2023-04-29T07:03:04;14.10;99.90
6988;DHT22;3534;49.960;8.018;2023-04-29T07:05:32;14.10;99.90
6988;DHT22;3534;49.960;8.018;2023-04-29T07:07:58;14.20;99.90
6988;DHT22;3534;49.960;8.018;2023-04-29T07:10:25;14.20;99.90
6988;DHT22;3534;49.960;8.018;2023-04-29T07:12:52;14.10;99.90
6988;DHT22;3534;49.960;8.018;2023-04-29T07:15:19;14.10;99.90
6988;DHT22;3534;49.960;8.018;2023-04-29T07:17:45;14.00;99.90
6988;DHT22;3534;49.960;8.018;2023-04-29T07:20:12;14.00;99.90
6988;DHT22;3534;49.960;8.018;2023-04-29T07:22:41;14.00;99.90
6988;DHT22;3534;49.960;8.018;2023-04-29T07:25:08;13.90;99.90
6988;DHT22;3534;49.960;8.018;2023-04-29T07:27:35;13.80;99.90
6988;DHT22;3534;49.960;8.018;2023-04-29T07:30:02;13.80;99.90
6988;DHT22;3534;49.960;8.018;2023-04-29T07:32:29;13.80;99.90
6988;DHT22;3534;49.960;8.018;2023-04-29T07:34:57;13.80;99.90
6988;DHT22;3534;49.960;8.018;2023-04-29T07:37:23;13.80;99.90
6988;DHT22;3534;49.960;8.018;2023-04-29T07:39:52;13.80;99.90
6988;DHT22;3534;49.960;8.018;2023-04-29T07:42:19;13.80;99.90
6988;DHT22;3534;49.960;8.018;2023-04-29T07:44:45;13.90;99.90
6988;DHT22;3534;49.960;8.018;2023-04-29T07:47:12;13.80;99.90
6988;DHT22;3534;49.960;8.018;2023-04-29T07:49:39;13.80;99.90
6988;DHT22;3534;49.960;8.018;2023-04-29T07:52:06;13.80;99.90
6988;DHT22;3534;49.960;8.018;2023-04-29T07:54:34;13.80;99.90
6988;DHT22;3534;49.960;8.018;2023-04-29T07:57:02;13.80;99.90
6988;DHT22;3534;49.960;8.018;2023-04-29T07:59:29;13.80;99.90
6988;DHT22;3534;49.960;8.018;2023-04-29T08:01:56;13.80;99.90
6988;DHT22;3534;49.960;8.018;2023-04-29T08:04:23;13.80;99.90
6988;DHT22;3534;49.960;8.018;2023-04-29T08:06:49;13.80;99.90
6988;DHT22;3534;49.960;8.018;2023-04-29T08:09:16;13.80;99.90
6988;DHT22;3534;49.960;8.018;2023-04-29T08:11:43;13.80;99.90
6988;DHT22;3534;49.960;8.018;2023-04-29T08:14:11;13.80;99.90
6988;DHT22;3534;49.960;8.018;2023-04-29T08:16:38;13.80;99.90
6988;DHT22;3534;49.960;8.018;2023-04-29T08:19:05;13.80;99.90
6988;DHT22;3534;49.960;8.018;2023-04-29T08:21:31;13.90;99.90
6988;DHT22;3534;49.960;8.018;2023-04-29T08:23:59;14.00;99.90
6988;DHT22;3534;49.960;8.018;2023-04-29T08:26:25;14.00;99.90
6988;DHT22;3534;49.960;8.018;2023-04-29T08:28:52;14.10;99.90
6988;DHT22;3534;49.960;8.018;2023-04-29T08:31:20;14.10;99.90
6988;DHT22;3534;49.960;8.018;2023-04-29T08:33:47;14.20;99.90
6988;DHT22;3534;49.960;8.018;2023-04-29T08:36:14;14.20;99.90
6988;DHT22;3534;49.960;8.018;2023-04-29T08:38:40;14.20;99.90
6988;DHT22;3534;49.960;8.018;2023-04-29T08:41:08;14.20;99.90
6988;DHT22;3534;49.960;8.018;2023-04-29T08:43:36;14.30;99.90
6988;DHT22;3534;49.960;8.018;2023-04-29T08:46:04;14.30;99.90
6988;DHT22;3534;49.960;8.018;2023-04-29T08:48:33;14.30;99.90
6988;DHT22;3534;49.960;8.018;2023-04-29T08:51:02;14.20;99.90
6988;DHT22;3534;49.960;8.018;2023-04-29T08:53:28;14.20;99.90
6988;DHT22;3534;49.960;8.018;2023-04-29T08:55:57;14.20;99.90
6988;DHT22;3534;49.960;8.018;2023-04-29T08:58:27;14.20;99.90
6988;DHT22;3534;49.960;8.018;2023-04-29T09:00:55;14.10;99.90
6988;DHT22;3534;49.960;8.018;2023-04-29T09:03:26;14.10;99.90
6988;DHT22;3534;49.960;8.018;2023-04-29T09:05:55;14.00;99.90
6988;DHT22;3534;49.960;8.018;2023-04-29T09:08:25;14.00;99.90
6988;DHT22;3534;49.960;8.018;2023-04-29T09:10:53;13.90;99.90
6988;DHT22;3534;49.960;8.018;2023-04-29T09:13:24;13.90;99.90
6988;DHT22;3534;49.960;8.018;2023-04-29T09:15:51;13.90;99.90
6988;DHT22;3534;49.960;8.018;2023-04-29T09:18:40;13.90;99.90
6988;DHT22;3534;49.960;8.018;2023-04-29T09:21:13;13.70;99.90
6988;DHT22;3534;49.960;8.018;2023-04-29T09:23:41;13.70;99.90
6988;DHT22;3534;49.960;8.018;2023-04-29T09:26:07;13.60;99.90
6988;DHT22;3534;49.960;8.018;2023-04-29T09:28:34;13.50;99.90
6988;DHT22;3534;49.960;8.018;2023-04-29T09:31:01;13.50;99.90
6988;DHT22;3534;49.960;8.018;2023-04-29T09:33:30;13.60;99.90
6988;DHT22;3534;49.960;8.018;2023-04-29T09:35:57;13.70;99.90
6988;DHT22;3534;49.960;8.018;2023-04-29T09:38:26;13.70;99.90
6988;DHT22;3534;49.960;8.018;2023-04-29T09:40:53;13.60;99.90
6988;DHT22;3534;49.960;8.018;2023-04-29T09:43:20;13.50;99.90
6988;DHT22;3534;49.960;8.018;2023-04-29T09:45:48;13.40;99.90
6988;DHT22;3534;49.960;8.018;2023-04-29T09:48:15;13.30;99.90
6988;DHT22;3534;49.960;8.018;2023-04-29T09:50:42;13.30;99.90
6988;DHT22;3534;49.960;8.018;2023-04-29T09:53:28;13.30;99.90
6988;DHT22;3534;49.960;8.018;2023-04-29T09:56:00;13.30;99.90
6988;DHT22;3534;49.960;8.018;2023-04-29T09:58:27;13.30;99.90
6988;DHT22;3534;49.960;8.018;2023-04-29T10:00:57;13.20;99.90
6988;DHT22;3534;49.960;8.018;2023-04-29T10:03:26;13.20;99.90
6988;DHT22;3534;49.960;8.018;2023-04-29T10:05:56;13.20;99.90
6988;DHT22;3534;49.960;8.018;2023-04-29T10:08:24;13.20;99.90
6988;DHT22;3534;49.960;8.018;2023-04-29T10:10:53;13.20;99.90
6988;DHT22;3534;49.960;8.018;2023-04-29T10:13:22;13.30;99.90
6988;DHT22;3534;49.960;8.018;2023-04-29T10:15:57;13.30;99.90
6988;DHT22;3534;49.960;8.018;2023-04-29T10:18:29;13.30;99.90
6988;DHT22;3534;49.960;8.018;2023-04-29T10:21:01;13.40;99.90
6988;DHT22;3534;49.960;8.018;2023-04-29T10:23:29;13.50;99.90
6988;DHT22;3534;49.960;8.018;2023-04-29T10:25:58;13.50;99.90
6988;DHT22;3534;49.960;8.018;2023-04-29T10:28:27;13.60;99.90
6988;DHT22;3534;49.960;8.018;2023-04-29T10:30:57;13.70;99.90
6988;DHT22;3534;49.960;8.018;2023-04-29T10:33:24;13.80;99.90
6988;DHT22;3534;49.960;8.018;2023-04-29T10:35:53;13.80;99.90
6988;DHT22;3534;49.960;8.018;2023-04-29T10:38:24;13.90;99.90
6988;DHT22;3534;49.960;8.018;2023-04-29T10:40:55;14.00;99.90
6988;DHT22;3534;49.960;8.018;2023-04-29T10:43:25;14.10;99.90
6988;DHT22;3534;49.960;8.018;2023-04-29T10:46:16;14.20;99.90
6988;DHT22;3534;49.960;8.018;2023-04-29T10:48:43;14.20;99.90
6988;DHT22;3534;49.960;8.018;2023-04-29T10:51:10;14.20;99.90
6988;DHT22;3534;49.960;8.018;2023-04-29T10:54:01;14.10;99.90
6988;DHT22;3534;49.960;8.018;2023-04-29T10:56:36;14.10;99.90
6988;DHT22;3534;49.960;8.018;2023-04-29T10:59:04;14.10;99.90
6988;DHT22;3534;49.960;8.018;2023-04-29T11:01:48;14.10;99.90
6988;DHT22;3534;49.960;8.018;2023-04-29T11:04:16;14.10;99.90
6988;DHT22;3534;49.960;8.018;2023-04-29T11:06:45;14.10;99.90
6988;DHT22;3534;49.960;8.018;2023-04-29T11:09:20;14.10;99.90
6988;DHT22;3534;49.960;8.018;2023-04-29T11:11:55;14.10;99.90
6988;DHT22;3534;49.960;8.018;2023-04-29T11:14:25;14.00;99.90
6988;DHT22;3534;49.960;8.018;2023-04-29T11:16:54;14.00;99.90
6988;DHT22;3534;49.960;8.018;2023-04-29T11:19:23;14.00;99.90
6988;DHT22;3534;49.960;8.018;2023-04-29T11:22:07;14.10;99.90
6988;DHT22;3534;49.960;8.018;2023-04-29T11:24:33;13.90;99.90
6988;DHT22;3534;49.960;8.018;2023-04-29T11:27:01;13.90;99.90
6988;DHT22;3534;49.960;8.018;2023-04-29T11:29:31;13.80;99.90
6988;DHT22;3534;49.960;8.018;2023-04-29T11:31:59;13.80;99.90
6988;DHT22;3534;49.960;8.018;2023-04-29T11:34:26;13.80;99.90
6988;DHT22;3534;49.960;8.018;2023-04-29T11:36:53;13.90;99.90
6988;DHT22;3534;49.960;8.018;2023-04-29T11:39:19;14.00;99.90
6988;DHT22;3534;49.960;8.018;2023-04-29T11:41:48;14.10;99.90
6988;DHT22;3534;49.960;8.018;2023-04-29T11:44:20;14.30;99.90
6988;DHT22;3534;49.960;8.018;2023-04-29T11:46:49;14.40;99.90
6988;DHT22;3534;49.960;8.018;2023-04-29T11:49:15;14.40;99.90
6988;DHT22;3534;49.960;8.018;2023-04-29T11:51:42;14.40;99.90
6988;DHT22;3534;49.960;8.018;2023-04-29T11:54:09;14.40;99.90
6988;DHT22;3534;49.960;8.018;2023-04-29T11:56:36;14.50;99.90
6988;DHT22;3534;49.960;8.018;2023-04-29T11:59:03;14.60;99.90
6988;DHT22;3534;49.960;8.018;2023-04-29T12:01:32;14.70;99.90
6988;DHT22;3534;49.960;8.018;2023-04-29T12:04:00;14.90;99.90
6988;DHT22;3534;49.960;8.018;2023-04-29T12:06:27;15.00;99.90
6988;DHT22;3534;49.960;8.018;2023-04-29T12:08:58;15.20;99.90
6988;DHT22;3534;49.960;8.018;2023-04-29T12:11:25;15.20;99.90
6988;DHT22;3534;49.960;8.018;2023-04-29T12:13:52;15.30;99.90
6988;DHT22;3534;49.960;8.018;2023-04-29T12:16:19;15.30;99.90
6988;DHT22;3534;49.960;8.018;2023-04-29T12:18:46;15.40;99.90
6988;DHT22;3534;49.960;8.018;2023-04-29T12:21:14;15.40;99.90
6988;DHT22;3534;49.960;8.018;2023-04-29T12:23:40;15.40;99.90
6988;DHT22;3534;49.960;8.018;2023-04-29T12:26:08;15.20;99.90
6988;DHT22;3534;49.960;8.018;2023-04-29T12:28:35;15.20;99.90
6988;DHT22;3534;49.960;8.018;2023-04-29T12:31:02;15.30;99.90
6988;DHT22;3534;49.960;8.018;2023-04-29T12:33:29;15.30;99.90
6988;DHT22;3534;49.960;8.018;2023-04-29T12:35:56;15.30;99.90
6988;DHT22;3534;49.960;8.018;2023-04-29T12:38:26;15.30;99.90
6988;DHT22;3534;49.960;8.018;2023-04-29T12:40:53;15.30;99.90
6988;DHT22;3534;49.960;8.018;2023-04-29T12:43:25;15.30;99.90
6988;DHT22;3534;49.960;8.018;2023-04-29T12:45:53;15.30;99.90
6988;DHT22;3534;49.960;8.018;2023-04-29T12:48:20;15.40;99.90
6988;DHT22;3534;49.960;8.018;2023-04-29T12:50:48;15.40;99.90
6988;DHT22;3534;49.960;8.018;2023-04-29T12:53:15;15.30;99.90
6988;DHT22;3534;49.960;8.018;2023-04-29T12:55:43;15.20;99.90
6988;DHT22;3534;49.960;8.018;2023-04-29T12:58:10;15.20;99.90
6988;DHT22;3534;49.960;8.018;2023-04-29T13:00:37;15.20;99.90
6988;DHT22;3534;49.960;8.018;2023-04-29T13:03:04;15.20;99.90
6988;DHT22;3534;49.960;8.018;2023-04-29T13:05:31;15.30;99.90
6988;DHT22;3534;49.960;8.018;2023-04-29T13:07:58;15.30;99.90
6988;DHT22;3534;49.960;8.018;2023-04-29T13:10:24;15.40;99.90
6988;DHT22;3534;49.960;8.018;2023-04-29T13:12:54;15.40;99.90
6988;DHT22;3534;49.960;8.018;2023-04-29T13:15:21;15.40;99.90
6988;DHT22;3534;49.960;8.018;2023-04-29T13:17:48;15.50;99.90
6988;DHT22;3534;49.960;8.018;2023-04-29T13:20:16;15.50;99.90
6988;DHT22;3534;49.960;8.018;2023-04-29T13:22:43;15.60;99.90
6988;DHT22;3534;49.960;8.018;2023-04-29T13:25:09;15.70;99.90
6988;DHT22;3534;49.960;8.018;2023-04-29T13:27:36;15.70;99.90
6988;DHT22;3534;49.960;8.018;2023-04-29T13:30:05;15.70;99.90
6988;DHT22;3534;49.960;8.018;2023-04-29T13:32:32;15.60;99.90
6988;DHT22;3534;49.960;8.018;2023-04-29T13:34:58;15.50;99.90
6988;DHT22;3534;49.960;8.018;2023-04-29T13:37:25;15.50;99.90
6988;DHT22;3534;49.960;8.018;2023-04-29T13:39:52;15.50;99.90
6988;DHT22;3534;49.960;8.018;2023-04-29T13:42:18;15.60;99.90
6988;DHT22;3534;49.960;8.018;2023-04-29T13:44:45;15.70;99.90
6988;DHT22;3534;49.960;8.018;2023-04-29T13:47:14;15.80;99.90
6988;DHT22;3534;49.960;8.018;2023-04-29T13:49:42;15.90;99.90
6988;DHT22;3534;49.960;8.018;2023-04-29T13:52:09;16.00;99.90
6988;DHT22;3534;49.960;8.018;2023-04-29T13:54:36;16.00;99.90
6988;DHT22;3534;49.960;8.018;2023-04-29T13:57:03;16.00;99.90
6988;DHT22;3534;49.960;8.018;2023-04-29T13:59:30;15.90;99.90
6988;DHT22;3534;49.960;8.018;2023-04-29T14:01:57;15.90;99.90
6988;DHT22;3534;49.960;8.018;2023-04-29T14:04:25;15.80;99.90
6988;DHT22;3534;49.960;8.018;2023-04-29T14:06:52;15.90;99.90
6988;DHT22;3534;49.960;8.018;2023-04-29T14:09:19;15.90;99.90
6988;DHT22;3534;49.960;8.018;2023-04-29T14:11:46;15.70;99.90
6988;DHT22;3534;49.960;8.018;2023-04-29T14:14:13;15.60;99.90
6988;DHT22;3534;49.960;8.018;2023-04-29T14:16:40;15.60;99.90
6988;DHT22;3534;49.960;8.018;2023-04-29T14:19:07;15.60;99.90
6988;DHT22;3534;49.960;8.018;2023-04-29T14:21:35;15.50;99.90
6988;DHT22;3534;49.960;8.018;2023-04-29T14:24:02;15.60;99.90
6988;DHT22;3534;49.960;8.018;2023-04-29T14:26:29;15.60;99.90
6988;DHT22;3534;49.960;8.018;2023-04-29T14:28:56;15.60;99.90
6988;DHT22;3534;49.960;8.018;2023-04-29T14:31:24;15.70;99.90
6988;DHT22;3534;49.960;8.018;2023-04-29T14:33:52;15.70;99.90
6988;DHT22;3534;49.960;8.018;2023-04-29T14:36:18;15.80;99.90
6988;DHT22;3534;49.960;8.018;2023-04-29T14:38:46;15.90;99.90
6988;DHT22;3534;49.960;8.018;2023-04-29T14:41:13;15.80;99.90
6988;DHT22;3534;49.960;8.018;2023-04-29T14:43:40;15.80;99.90
6988;DHT22;3534;49.960;8.018;2023-04-29T14:46:07;15.80;99.90
6988;DHT22;3534;49.960;8.018;2023-04-29T14:48:34;15.80;99.90
6988;DHT22;3534;49.960;8.018;2023-04-29T14:51:00;15.80;99.90
6988;DHT22;3534;49.960;8.018;2023-04-29T14:53:27;15.80;99.90
6988;DHT22;3534;49.960;8.018;2023-04-29T14:55:55;15.80;99.90
6988;DHT22;3534;49.960;8.018;2023-04-29T14:58:22;15.70;99.90
6988;DHT22;3534;49.960;8.018;2023-04-29T15:00:48;15.70;99.90
6988;DHT22;3534;49.960;8.018;2023-04-29T15:03:16;15.70;99.90
6988;DHT22;3534;49.960;8.018;2023-04-29T15:05:42;15.70;99.90
6988;DHT22;3534;49.960;8.018;2023-04-29T15:08:10;15.60;99.90
6988;DHT22;3534;49.960;8.018;2023-04-29T15:10:37;15.60;99.90
6988;DHT22;3534;49.960;8.018;2023-04-29T15:13:05;15.60;99.90
6988;DHT22;3534;49.960;8.018;2023-04-29T15:15:32;15.70;99.90
6988;DHT22;3534;49.960;8.018;2023-04-29T15:17:59;15.60;99.90
6988;DHT22;3534;49.960;8.018;2023-04-29T15:20:25;15.60;99.90
6988;DHT22;3534;49.960;8.018;2023-04-29T15:22:52;15.40;99.90
6988;DHT22;3534;49.960;8.018;2023-04-29T15:25:19;15.40;99.90
6988;DHT22;3534;49.960;8.018;2023-04-29T15:27:45;15.40;99.90
6988;DHT22;3534;49.960;8.018;2023-04-29T15:30:14;15.50;99.90
6988;DHT22;3534;49.960;8.018;2023-04-29T15:32:41;15.50;99.90
6988;DHT22;3534;49.960;8.018;2023-04-29T15:35:08;15.50;99.90
6988;DHT22;3534;49.960;8.018;2023-04-29T15:37:36;15.40;99.90
6988;DHT22;3534;49.960;8.018;2023-04-29T15:40:03;15.40;99.90
6988;DHT22;3534;49.960;8.018;2023-04-29T15:42:29;15.30;99.90
6988;DHT22;3534;49.960;8.018;2023-04-29T15:44:56;15.20;99.90
6988;DHT22;3534;49.960;8.018;2023-04-29T15:47:24;15.30;99.90
6988;DHT22;3534;49.960;8.018;2023-04-29T15:49:50;15.30;99.90
6988;DHT22;3534;49.960;8.018;2023-04-29T15:52:17;15.40;99.90
6988;DHT22;3534;49.960;8.018;2023-04-29T15:54:44;15.30;99.90
6988;DHT22;3534;49.960;8.018;2023-04-29T15:57:10;15.20;99.90
6988;DHT22;3534;49.960;8.018;2023-04-29T15:59:37;15.10;99.90
6988;DHT22;3534;49.960;8.018;2023-04-29T16:02:04;15.00;99.90
6988;DHT22;3534;49.960;8.018;2023-04-29T16:04:36;15.00;99.90
6988;DHT22;3534;49.960;8.018;2023-04-29T16:07:02;15.00;99.90